• Join FlightAware (Why Join?)
  • Login
  • US Flag 
04:57AM EST


 

Airport Tracker/Info


-or-


 

Live Flight TrackerFlight Track Log ✈ UAL252 ✈ 05-May-2013 ✈ KDEN - KDFW

Flight Track Log - Related Links

Times and Time Zones

All times are in EDT time to prevent confusion due to time zone crossing. See the UAL252 flight status page for this flight to view local times or setup timezone preferences in your user account.

Time Position Orientation Groundspeed Altitude Reporting Facility
EDT Latitude Longitude Course Direction KTS MPH feet Rate Location/Type
06:30PM 39.9167 -104.6833 57° Northeast 173 199 6,700  Level Denver TRACON
06:31PM 39.9500 -104.6167 57° Northeast 220 253 8,000 1,550 Climbing Denver TRACON
06:32PM 39.9667 -104.5333 75° East 274 315 9,800 1,762 Climbing Denver TRACON
06:33PM 39.9167 -104.4167 119° Southeast 332 382 11,700 2,200 Climbing Denver TRACON
06:34PM 39.8667 -104.3333 128° Southeast 355 409 14,200 2,264 Climbing Denver TRACON
06:35PM 39.8250 -104.2528 124° Southeast 358 412 15,700 2,263 Climbing Denver Center
06:36PM 39.7533 -104.1136 124° Southeast 376 433 18,500 2,323 Climbing Denver Center
06:37PM 39.6939 -103.9969 123° Southeast 387 445 20,500 1,742 Climbing Denver Center
06:38PM 39.6317 -103.8742 123° Southeast 403 464 22,100 1,452 Climbing Denver Center
06:39PM 39.5767 -103.7458 119° Southeast 411 473 23,500 1,268 Climbing Denver Center
06:40PM 39.5478 -103.6258 107° East 413 475 24,700 1,325 Climbing Denver Center
06:42PM 39.4725 -103.3486 109° East 432 497 27,100 1,403 Climbing Kansas City Center
06:42PM 39.4536 -103.2736 108° East 444 511 27,600 929 Climbing Denver Center
06:43PM 39.4128 -103.1153 108° East 458 527 28,400 871 Climbing Denver Center
06:44PM 39.3678 -102.9528 110° East 474 545 29,400 927 Climbing Denver Center
06:45PM 39.3247 -102.7856 108° East 486 559 30,300 780 Climbing Denver Center
06:46PM 39.2878 -102.6503 109° East 497 572 31,000 339 Climbing Denver Center
06:47PM 39.2281 -102.4378 110° East 493 567 31,000  Level Denver Center
06:48PM 39.1839 -102.2753 109° East 500 575 31,000 677 Level Denver Center
06:49PM 39.1286 -102.0908 111° Southeast 495 570 32,400 1,268 Climbing Denver Center
06:50PM 39.0536 -101.9533 125° Southeast 489 563 33,600 1,220 Climbing Denver Center
06:51PM 38.9439 -101.8281 138° Southeast 473 544 34,900 968 Climbing Denver Center
06:52PM 38.8469 -101.7233 140° Southeast 473 544 35,600 774 Climbing Denver Center
06:53PM 38.7500 -101.6164 139° Southeast 478 550 36,500 683 Climbing Denver Center
06:54PM 38.6378 -101.4931 139° Southeast 477 549 37,000 244 Climbing Denver Center
06:55PM 38.5417 -101.3889 140° Southeast 476 548 37,000  Level Denver Center
06:57PM 38.4281 -101.2683 140° Southeast 475 547 37,000  Level Denver Center
06:58PM 38.3294 -101.1647 140° Southeast 478 550 37,000  Level Denver Center
06:59PM 38.2150 -101.0453 141° Southeast 476 548 37,000  Level Denver Center
07:01PM 37.9817 -100.8069 141° Southeast 480 552 37,000  Level Denver Center
07:01PM 37.9314 -100.7556 141° Southeast 481 554 37,000  Level Kansas City Center
07:02PM 37.8308 -100.6531 141° Southeast 480 552 37,000  Level Kansas City Center
07:03PM 37.7303 -100.5503 141° Southeast 480 552 37,000  Level Kansas City Center
07:04PM 37.6033 -100.4522 149° Southeast 477 549 37,000  Level Kansas City Center
07:05PM 37.4867 -100.3892 157° South 474 545 37,000  Level Kansas City Center
07:06PM 37.3514 -100.3169 157° South 472 543 37,000  Level Kansas City Center
07:07PM 37.2356 -100.2553 157° South 472 543 37,000  Level Kansas City Center
07:09PM 37.1194 -100.1942 157° South 471 542 37,000  Level Kansas City Center
07:10PM 36.9853 -100.1225 157° South 470 541 37,000  Level Kansas City Center
07:11PM 36.8692 -100.0614 157° South 471 542 37,000  Level Kansas City Center
07:12PM 36.7353 -99.9892 157° South 470 541 37,000  Level Kansas City Center
07:13PM 36.6206 -99.9272 157° South 469 540 37,000  Level Kansas City Center
07:14PM 36.4856 -99.8561 157° South 470 541 37,000  Level Kansas City Center
07:15PM 36.3689 -99.7967 158° South 472 543 37,000  Level Kansas City Center
07:16PM 36.2322 -99.7256 157° South 475 547 37,000  Level Kansas City Center
07:17PM 36.1167 -99.6678 158° South 470 541 37,000 -247 Level Kansas City Center
07:19PM 35.8944 -99.5553 158° South 472 543 36,300 -537 Descending Fort Worth Center
07:19PM 35.8628 -99.5344 152° Southeast 468 539 35,900 -1,013 Descending Kansas City Center
07:20PM 35.7428 -99.4722 157° South 466 536 35,000 -435 Descending Kansas City Center
07:21PM 35.6236 -99.4108 157° South 467 537 35,000  Level Kansas City Center
07:22PM 35.5450 -99.3728 158° South 478 550 35,000  Level Fort Worth Center
07:23PM 35.4272 -99.3139 158° South 466 536 35,000  Level Fort Worth Center
07:24PM 35.3050 -99.2528 158° South 471 542 35,000  Level Fort Worth Center
07:25PM 35.1828 -99.1917 158° South 476 548 35,000  Level Fort Worth Center
07:26PM 35.0628 -99.1258 156° South 471 542 35,000  Level Fort Worth Center
07:27PM 34.9556 -99.0322 144° Southeast 471 542 35,000  Level Fort Worth Center
07:28PM 34.8400 -98.9289 144° Southeast 471 542 35,000  Level Fort Worth Center
07:29PM 34.7450 -98.8439 144° Southeast 477 549 35,000 -252 Level Fort Worth Center
07:30PM 34.6211 -98.7433 146° Southeast 477 549 34,500 -744 Descending Fort Worth Center
07:31PM 34.5136 -98.6508 145° Southeast 482 555 33,500 -1,000 Descending Fort Worth Center
07:32PM 34.4039 -98.5614 146° Southeast 482 555 32,500 -958 Descending Fort Worth Center
07:33PM 34.3003 -98.4694 144° Southeast 482 555 31,600 -942 Descending Fort Worth Center
07:34PM 34.1967 -98.3828 145° Southeast 470 541 30,600 -900 Descending Fort Worth Center
07:35PM 34.1136 -98.3142 146° Southeast 465 535 29,800 -958 Descending Fort Worth Center
07:36PM 33.9914 -98.2025 143° Southeast 460 529 28,700 -2,033 Descending Fort Worth Center
07:37PM 33.9000 -98.1267 145° Southeast 455 524 25,700 -3,050 Descending Fort Worth Center
07:38PM 33.7897 -98.0358 146° Southeast 467 537 22,600 -2,824 Descending Fort Worth Center
07:39PM 33.6756 -97.9378 144° Southeast 475 547 20,100 -2,579 Descending Fort Worth Center
07:40PM 33.5756 -97.8547 145° Southeast 455 524 17,400 -2,331 Descending Fort Worth Center
07:41PM 33.4944 -97.7722 140° Southeast 436 502 15,400 -1,966 Descending Fort Worth Center
07:42PM 33.4031 -97.6672 136° Southeast 416 479 13,500 -1,866 Descending Fort Worth Center
07:43PM 33.3239 -97.5750 136° Southeast 395 455 11,700 -1,300 Descending Fort Worth Center
07:44PM 33.2550 -97.4906 134° Southeast 390 449 10,900 -350 Descending Fort Worth Center
07:45PM 33.1694 -97.3936 137° Southeast 390 449 11,000  Climbing Fort Worth Center
07:46PM 33.1047 -97.3142 134° Southeast 375 432 10,900  Descending Fort Worth Center
07:47PM 33.0317 -97.2275 135° Southeast 349 402 11,000 50 Climbing Fort Worth Center
07:48PM 32.9772 -97.1756 141° Southeast 302 348 11,000 -595 Level Fort Worth Center
07:49PM 32.8917 -97.1711 178° South 270 311 9,800 -1,438 Descending Fort Worth Center
07:50PM 32.8247 -97.1711 180° South 270 311 8,100 -1,650 Descending Fort Worth Center
07:51PM 32.7475 -97.1614 174° South 263 303 6,500 -1,700 Descending Fort Worth Center
07:52PM 32.7267 -97.1072 115° Southeast 205 236 4,700 -1,955 Descending Fort Worth Center
07:52PM 32.7333 -97.0833 72° East 179 206 3,600 -1,483 Descending Dallas / Fort Worth TRACON
07:53PM 32.7833 -97.0500 29° Northeast 172 198 2,500 -1,008 Descending Dallas / Fort Worth TRACON
07:54PM 32.8333 -97.0500 360° North 138 159 1,600 -789 Descending Dallas / Fort Worth TRACON
07:55PM 32.8667 -97.0500 360° North 134 154 1,000 -655 Descending Dallas / Fort Worth TRACON